Time;durP1;ratioP1;P1;durP2;ratioP2;P2;SDS_P1;SDS_P2;PMS_P1;PMS_P2;Temp;Humidity;BMP_temperature;BMP_pressure;BME280_temperature;BME280_humidity;BME280_pressure;Samples;Min_cycle;Max_cycle;Signal;HPM_P1;HPM_P2
2021/03/30 00:00:21;;;;;;;12.57;7.28;;;10.90;65.50;;;;;;5078060;28;20032;-72
2021/03/30 00:02:47;;;;;;;11.88;7.07;;;10.80;65.90;;;;;;5078136;28;20034;-72
2021/03/30 00:05:13;;;;;;;8.82;6.60;;;10.80;66.20;;;;;;5077458;28;20128;-72
2021/03/30 00:07:39;;;;;;;10.82;6.97;;;10.70;66.60;;;;;;5077646;28;20363;-72
2021/03/30 00:10:07;;;;;;;18.75;9.05;;;10.80;66.90;;;;;;5077679;28;20020;-72
2021/03/30 00:12:33;;;;;;;11.98;6.60;;;10.80;68.00;;;;;;5077364;28;20024;-72
2021/03/30 00:14:59;;;;;;;15.80;8.30;;;10.80;67.60;;;;;;5077533;28;20400;-72
2021/03/30 00:17:25;;;;;;;12.85;8.18;;;10.90;68.30;;;;;;5077275;28;20388;-72
2021/03/30 00:19:50;;;;;;;11.73;6.88;;;10.90;68.30;;;;;;5077284;28;20029;-72
2021/03/30 00:22:16;;;;;;;10.50;7.28;;;10.90;68.30;;;;;;5077332;28;20059;-72
2021/03/30 00:24:42;;;;;;;11.07;7.05;;;10.90;68.20;;;;;;5077056;28;20084;-72
2021/03/30 00:27:08;;;;;;;11.60;7.88;;;10.90;68.00;;;;;;5076875;28;20040;-72
2021/03/30 00:29:42;;;;;;;11.10;8.23;;;10.90;68.60;;;;;;5077178;28;20020;-72
2021/03/30 00:32:12;;;;;;;10.27;8.20;;;10.80;69.20;;;;;;5059330;28;20078;-72
2021/03/30 00:34:38;;;;;;;15.00;8.25;;;10.70;69.10;;;;;;5076971;28;20044;-72
2021/03/30 00:37:05;;;;;;;11.50;7.60;;;10.70;68.70;;;;;;5076989;28;20028;-72
2021/03/30 00:39:31;;;;;;;10.88;7.00;;;10.70;68.60;;;;;;5077066;28;20040;-72
2021/03/30 00:41:57;;;;;;;12.75;6.82;;;10.60;68.30;;;;;;5076887;28;20426;-72
2021/03/30 00:44:22;;;;;;;12.93;7.10;;;10.60;68.20;;;;;;5076842;28;20032;-72
2021/03/30 00:46:50;;;;;;;11.40;6.95;;;10.60;68.40;;;;;;5076771;28;20409;-72
2021/03/30 00:49:19;;;;;;;9.98;6.95;;;10.60;68.40;;;;;;5076979;28;20025;-72
2021/03/30 00:51:47;;;;;;;14.43;7.53;;;10.60;68.70;;;;;;5059003;28;20021;-72
2021/03/30 00:54:14;;;;;;;12.40;8.40;;;10.60;69.60;;;;;;5076601;28;20031;-72
2021/03/30 00:56:41;;;;;;;15.77;8.60;;;10.60;70.30;;;;;;5076745;28;20029;-72
2021/03/30 00:59:07;;;;;;;11.10;8.27;;;10.60;70.30;;;;;;5076732;28;20021;-72
2021/03/30 01:01:34;;;;;;;11.43;8.35;;;10.50;70.50;;;;;;5076684;28;20055;-72
2021/03/30 01:04:00;;;;;;;13.30;7.90;;;10.50;70.70;;;;;;5076589;28;20020;-72
2021/03/30 01:06:26;;;;;;;11.07;8.48;;;10.50;70.50;;;;;;5058858;28;20024;-72
2021/03/30 01:09:29;;;;;;;13.68;9.18;;;10.50;70.80;;;;;;5076858;28;20048;-72
2021/03/30 01:12:15;;;;;;;12.43;9.07;;;10.50;71.10;;;;;;5077174;28;20027;-72
2021/03/30 01:14:41;;;;;;;;;;;10.40;71.60;;;;;;5077070;28;20036;-72
2021/03/30 01:17:33;;;;;;;15.73;9.20;;;10.40;71.40;;;;;;5076618;28;19934;-72
2021/03/30 01:20:12;;;;;;;19.25;10.77;;;10.30;71.80;;;;;;5076630;28;20039;-72
2021/03/30 01:22:59;;;;;;;15.85;10.30;;;10.30;72.30;;;;;;5076727;28;20035;-72
2021/03/30 01:25:27;;;;;;;14.18;9.98;;;10.30;72.60;;;;;;5076428;28;20040;-72
2021/03/30 01:28:09;;;;;;;17.75;11.02;;;10.30;72.60;;;;;;5076342;28;20048;-72
2021/03/30 01:30:35;;;;;;;16.27;13.20;;;10.30;73.30;;;;;;5058655;28;20423;-72
2021/03/30 01:33:10;;;;;;;16.50;12.98;;;10.30;74.10;;;;;;5058590;28;20363;-72
2021/03/30 01:35:38;;;;;;;18.02;14.00;;;10.20;74.80;;;;;;5076423;28;20100;-72
2021/03/30 01:38:07;;;;;;;17.10;12.15;;;10.20;75.30;;;;;;5076591;28;20021;-72
2021/03/30 01:40:35;;;;;;;17.58;11.82;;;10.20;75.10;;;;;;5076559;28;20028;-72
2021/03/30 01:43:03;;;;;;;17.33;12.52;;;10.10;75.00;;;;;;5076312;28;20370;-72
2021/03/30 01:45:30;;;;;;;17.95;12.38;;;10.10;75.40;;;;;;5076234;28;20050;-72
2021/03/30 01:47:57;;;;;;;18.88;12.98;;;10.10;75.60;;;;;;5076186;28;20028;-72
2021/03/30 01:50:23;;;;;;;16.20;12.90;;;10.00;75.70;;;;;;5076435;28;20310;-72
2021/03/30 01:52:52;;;;;;;13.70;10.50;;;10.10;75.60;;;;;;5076345;28;20075;-72
2021/03/30 01:55:18;;;;;;;15.23;9.75;;;10.10;74.80;;;;;;5058327;28;20029;-72
2021/03/30 01:57:53;;;;;;;18.17;10.50;;;10.20;73.90;;;;;;5058387;28;20029;-72
2021/03/30 02:00:27;;;;;;;15.82;10.85;;;10.20;73.80;;;;;;5058435;28;20028;-72
2021/03/30 02:02:54;;;;;;;17.35;12.48;;;10.30;74.00;;;;;;5076655;28;20365;-72
2021/03/30 02:05:22;;;;;;;17.10;11.57;;;10.30;74.40;;;;;;5058301;28;20029;-72
2021/03/30 02:07:52;;;;;;;12.88;11.27;;;10.20;74.60;;;;;;5075988;28;20447;-72
2021/03/30 02:10:34;;;;;;;17.55;9.93;;;10.20;74.40;;;;;;5076337;28;20025;-72
2021/03/30 02:13:02;;;;;;;16.02;10.55;;;10.20;74.00;;;;;;5079461;28;20024;-72
2021/03/30 02:15:28;;;;;;;19.00;12.75;;;10.20;74.00;;;;;;5061874;28;20024;-72
2021/03/30 02:18:16;;;;;;;15.80;11.90;;;10.20;74.80;;;;;;5079522;28;20408;-72
2021/03/30 02:20:50;;;;;;;20.10;13.60;;;10.20;75.50;;;;;;5079773;28;20035;-72
2021/03/30 02:23:26;;;;;;;23.42;13.48;;;10.20;76.40;;;;;;5079681;28;20024;-72
2021/03/30 02:25:56;;;;;;;27.20;15.68;;;10.30;76.10;;;;;;5079663;28;20032;-72
2021/03/30 02:28:27;;;;;;;20.42;15.98;;;10.30;77.00;;;;;;5079246;28;20036;-72
2021/03/30 02:30:53;;;;;;;19.38;14.98;;;10.30;77.40;;;;;;5079388;28;20348;-72
2021/03/30 02:33:22;;;;;;;21.95;16.02;;;10.30;77.00;;;;;;5079665;28;20060;-72
2021/03/30 02:35:50;;;;;;;22.65;16.15;;;10.20;77.00;;;;;;5079240;28;20043;-72
2021/03/30 02:38:16;;;;;;;22.38;16.88;;;10.20;77.40;;;;;;5079529;28;20020;-72
2021/03/30 02:40:44;;;;;;;25.77;17.95;;;10.10;77.70;;;;;;5079197;28;20436;-72
2021/03/30 02:43:13;;;;;;;19.35;16.77;;;10.10;77.80;;;;;;5078983;28;20083;-72
2021/03/30 02:45:40;;;;;;;24.05;18.90;;;10.00;77.70;;;;;;5079322;28;20382;-72
2021/03/30 02:48:08;;;;;;;23.63;17.17;;;10.00;78.50;;;;;;5079260;28;20028;-72
2021/03/30 02:50:35;;;;;;;22.48;17.20;;;10.00;78.10;;;;;;5061217;28;20021;-72
2021/03/30 02:53:03;;;;;;;27.88;16.30;;;10.00;77.70;;;;;;5079103;28;20032;-72
2021/03/30 02:55:31;;;;;;;16.48;12.35;;;9.90;77.60;;;;;;5078953;28;20027;-72
2021/03/30 02:57:57;;;;;;;15.70;11.82;;;10.00;76.80;;;;;;5078851;28;20032;-72
2021/03/30 03:00:24;;;;;;;12.35;8.95;;;10.00;76.00;;;;;;5078859;28;20020;-72
2021/03/30 03:02:50;;;;;;;16.23;11.00;;;10.00;74.90;;;;;;5079114;28;20127;-72
2021/03/30 03:05:16;;;;;;;12.45;10.48;;;9.90;75.50;;;;;;5078718;28;20457;-72
2021/03/30 03:07:43;;;;;;;14.68;11.00;;;9.90;75.70;;;;;;5078637;28;20091;-72
2021/03/30 03:10:09;;;;;;;18.25;14.13;;;9.90;75.40;;;;;;5078647;28;20408;-72
2021/03/30 03:12:37;;;;;;;18.83;14.30;;;9.90;77.00;;;;;;5060877;28;20327;-72
2021/03/30 03:15:05;;;;;;;20.92;13.38;;;9.90;77.10;;;;;;5078518;28;20344;-72
2021/03/30 03:17:32;;;;;;;18.92;12.68;;;10.00;76.70;;;;;;5078501;28;20412;-72
2021/03/30 03:19:59;;;;;;;15.13;11.70;;;10.00;76.20;;;;;;5078583;28;20327;-72
2021/03/30 03:22:24;;;;;;;18.63;13.23;;;10.00;75.80;;;;;;5077943;28;20301;-72
2021/03/30 03:24:52;;;;;;;19.10;12.57;;;10.00;75.90;;;;;;5078005;28;20029;-72
2021/03/30 03:27:18;;;;;;;20.52;13.80;;;9.90;76.30;;;;;;5078061;28;20048;-72
2021/03/30 03:29:44;;;;;;;24.45;15.10;;;9.90;76.50;;;;;;5078244;28;20017;-72
2021/03/30 03:32:10;;;;;;;19.98;14.30;;;10.00;76.70;;;;;;5078220;28;20035;-72
2021/03/30 03:34:37;;;;;;;19.50;14.75;;;9.90;76.70;;;;;;5078085;28;20447;-72
2021/03/30 03:37:03;;;;;;;27.05;14.15;;;10.00;76.70;;;;;;5078338;28;20112;-72
2021/03/30 03:39:29;;;;;;;20.13;13.65;;;10.00;76.50;;;;;;5078199;28;20099;-72
2021/03/30 03:41:55;;;;;;;18.35;13.15;;;10.00;76.50;;;;;;5078321;28;20112;-72
2021/03/30 03:44:21;;;;;;;15.63;11.45;;;10.10;76.20;;;;;;5077827;28;20025;-72
2021/03/30 03:46:49;;;;;;;14.63;9.70;;;10.10;75.30;;;;;;5078060;28;20033;-72
2021/03/30 03:49:16;;;;;;;14.32;9.82;;;10.10;74.60;;;;;;5060152;28;20107;-73
2021/03/30 03:51:58;;;;;;;14.85;9.43;;;10.10;74.10;;;;;;5077762;28;20100;-74
2021/03/30 03:54:26;;;;;;;16.80;11.15;;;10.10;73.80;;;;;;5077646;28;20081;-72
2021/03/30 03:57:02;;;;;;;16.63;12.13;;;10.00;74.60;;;;;;5077735;28;20032;-72
2021/03/30 03:59:31;;;;;;;15.38;10.18;;;10.00;75.30;;;;;;5077819;28;20103;-72
2021/03/30 04:02:20;;;;;;;13.57;10.15;;;10.00;74.40;;;;;;5077628;28;20032;-72
2021/03/30 04:05:00;;;;;;;18.27;13.05;;;10.00;74.50;;;;;;5077547;28;20109;-72
2021/03/30 04:07:31;;;;;;;26.23;13.60;;;10.00;75.70;;;;;;5077698;28;20103;-72
2021/03/30 04:10:01;;;;;;;14.02;10.13;;;10.00;75.90;;;;;;5059695;28;20081;-72
2021/03/30 04:12:30;;;;;;;14.82;7.95;;;10.00;74.70;;;;;;5077671;28;20050;-72
2021/03/30 04:14:57;;;;;;;16.27;12.80;;;10.00;73.40;;;;;;5077297;28;20020;-72
2021/03/30 04:17:23;;;;;;;24.10;14.57;;;10.00;74.90;;;;;;5077324;28;20020;-72
2021/03/30 04:19:49;;;;;;;13.65;9.35;;;10.00;75.70;;;;;;5077371;28;20107;-72
2021/03/30 04:22:16;;;;;;;16.63;11.63;;;9.90;74.00;;;;;;5077404;28;20312;-72
2021/03/30 04:24:44;;;;;;;21.60;15.13;;;9.90;74.60;;;;;;5077082;28;20036;-72
2021/03/30 04:27:11;;;;;;;24.17;18.17;;;9.90;76.50;;;;;;5076891;28;20036;-72
2021/03/30 04:29:38;;;;;;;32.13;16.55;;;9.90;77.00;;;;;;5077182;28;20111;-72
2021/03/30 04:32:04;;;;;;;14.95;10.77;;;9.90;76.60;;;;;;5077089;28;20017;-72
2021/03/30 04:34:30;;;;;;;12.70;9.30;;;9.90;75.10;;;;;;5059011;28;20029;-72
2021/03/30 04:36:56;;;;;;;15.50;9.32;;;9.90;73.90;;;;;;5059291;28;20078;-72
2021/03/30 04:39:22;;;;;;;15.98;9.23;;;9.80;73.60;;;;;;5077014;28;20103;-72
2021/03/30 04:41:47;;;;;;;16.27;8.43;;;9.80;73.80;;;;;;5059191;28;20043;-72
2021/03/30 04:44:13;;;;;;;18.02;11.43;;;9.80;73.80;;;;;;5076864;28;20024;-72
2021/03/30 04:46:39;;;;;;;12.50;9.63;;;9.80;74.80;;;;;;5076881;28;20027;-72
2021/03/30 04:49:05;;;;;;;16.77;10.32;;;9.80;74.70;;;;;;5059150;28;20047;-72
2021/03/30 04:51:30;;;;;;;13.50;8.65;;;9.80;75.00;;;;;;5076877;28;20051;-72
2021/03/30 04:53:56;;;;;;;21.80;11.70;;;9.90;74.00;;;;;;5077225;28;20028;-72
2021/03/30 04:56:22;;;;;;;16.33;11.02;;;9.80;74.80;;;;;;5076844;28;20171;-72
2021/03/30 04:58:47;;;;;;;14.02;9.10;;;9.90;75.10;;;;;;5076861;28;20027;-72
2021/03/30 05:01:13;;;;;;;18.42;11.02;;;9.90;73.90;;;;;;5076755;28;20031;-72
2021/03/30 05:03:39;;;;;;;20.73;13.57;;;9.90;74.70;;;;;;5076644;28;20324;-72
2021/03/30 05:06:05;;;;;;;16.08;10.00;;;10.00;75.20;;;;;;5076710;28;20074;-72
2021/03/30 05:08:31;;;;;;;9.15;7.38;;;10.10;74.00;;;;;;5076828;28;20037;-72
2021/03/30 05:10:57;;;;;;;12.80;7.18;;;10.20;72.10;;;;;;5076630;28;20020;-72
2021/03/30 05:13:23;;;;;;;8.32;5.10;;;10.20;71.80;;;;;;5076457;28;20171;-72
2021/03/30 05:15:49;;;;;;;14.20;5.63;;;10.20;70.10;;;;;;5076587;28;20023;-72
2021/03/30 05:18:15;;;;;;;7.82;4.60;;;10.20;70.20;;;;;;5076834;28;20082;-72
2021/03/30 05:20:41;;;;;;;9.88;5.07;;;10.20;69.40;;;;;;5076547;28;20020;-72
2021/03/30 05:23:06;;;;;;;10.30;6.00;;;10.20;69.80;;;;;;5076607;28;20078;-72
2021/03/30 05:25:32;;;;;;;12.90;8.25;;;10.30;70.80;;;;;;5076576;28;20040;-72
2021/03/30 05:27:58;;;;;;;14.98;9.07;;;10.30;72.30;;;;;;5076204;28;20363;-72
2021/03/30 05:30:25;;;;;;;12.30;7.13;;;10.40;73.60;;;;;;5076703;28;20464;-72
2021/03/30 05:32:50;;;;;;;11.63;5.18;;;10.50;72.10;;;;;;5076452;28;20092;-72
2021/03/30 05:35:16;;;;;;;9.25;5.03;;;10.60;68.50;;;;;;5076568;28;20102;-72
2021/03/30 05:37:42;;;;;;;8.88;3.80;;;10.90;66.00;;;;;;5076423;28;20181;-72
2021/03/30 05:40:12;;;;;;;7.05;3.60;;;11.20;65.70;;;;;;5076285;28;20471;-72
2021/03/30 05:42:39;;;;;;;8.80;2.95;;;11.40;64.70;;;;;;5076555;28;20020;-72
2021/03/30 05:45:06;;;;;;;36.65;4.97;;;11.50;63.70;;;;;;5076159;28;20028;-72
2021/03/30 05:47:32;;;;;;;17.55;4.03;;;11.70;63.80;;;;;;5079000;28;20028;-72
2021/03/30 05:50:00;;;;;;;5.68;3.30;;;11.70;64.50;;;;;;5080181;28;20027;-72
2021/03/30 05:52:43;;;;;;;8.52;4.45;;;11.80;65.20;;;;;;5080378;28;20355;-72
2021/03/30 05:55:30;;;;;;;11.48;7.30;;;11.90;64.90;;;;;;5080284;28;20032;-72
2021/03/30 05:57:58;;;;;;;16.98;10.30;;;12.00;65.70;;;;;;5079411;28;20037;-72
2021/03/30 06:00:32;;;;;;;12.05;9.02;;;12.10;68.60;;;;;;5080193;28;20397;-72
2021/03/30 06:03:01;;;;;;;12.73;9.32;;;12.20;68.40;;;;;;5062158;28;20078;-72
2021/03/30 06:05:27;;;;;;;11.70;8.68;;;12.40;67.70;;;;;;5079766;28;20036;-72
2021/03/30 06:07:54;;;;;;;14.38;9.65;;;12.50;67.60;;;;;;5079993;28;20074;-72
2021/03/30 06:10:22;;;;;;;16.08;10.95;;;12.60;68.70;;;;;;5079769;28;20032;-72
2021/03/30 06:12:48;;;;;;;17.75;11.57;;;12.60;68.40;;;;;;5079961;28;20017;-72
2021/03/30 06:15:14;;;;;;;21.25;10.90;;;12.70;67.50;;;;;;5079605;28;20110;-72
2021/03/30 06:17:43;;;;;;;13.27;9.90;;;12.80;67.00;;;;;;5079641;28;20024;-72
2021/03/30 06:20:10;;;;;;;15.30;10.68;;;12.80;67.30;;;;;;5079574;28;20433;-72
2021/03/30 06:22:52;;;;;;;14.55;9.65;;;12.90;66.90;;;;;;5061826;28;20021;-72
2021/03/30 06:25:35;;;;;;;12.15;9.27;;;13.00;64.70;;;;;;5079402;28;20043;-72
2021/03/30 06:28:25;;;;;;;16.67;9.82;;;13.10;65.50;;;;;;5061441;28;20128;-72
2021/03/30 06:31:03;;;;;;;15.15;10.90;;;13.30;66.90;;;;;;5079621;28;20040;-72
2021/03/30 06:33:44;;;;;;;15.07;10.77;;;13.50;66.60;;;;;;5079545;28;20107;-72
2021/03/30 06:36:17;;;;;;;17.17;10.25;;;13.50;66.50;;;;;;5079613;28;20035;-72
2021/03/30 06:39:07;;;;;;;19.88;11.77;;;13.60;65.20;;;;;;5079622;28;20434;-73
2021/03/30 06:44:38;;;;;;;19.40;13.20;;;13.80;66.70;;;;;;5017466;28;20026;-72
2021/03/30 06:47:15;;;;;;;17.05;12.00;;;13.90;66.30;;;;;;5067369;28;20416;-72
2021/03/30 06:49:51;;;;;;;16.17;12.50;;;14.00;65.30;;;;;;5079154;28;20017;-72
2021/03/30 06:52:19;;;;;;;16.55;11.55;;;14.00;66.70;;;;;;5079058;28;20340;-72
2021/03/30 06:54:57;;;;;;;18.70;12.50;;;14.10;63.70;;;;;;5078907;28;20024;-71
2021/03/30 06:57:36;;;;;;;17.85;12.77;;;14.10;64.00;;;;;;5079067;28;20032;-72
2021/03/30 07:00:10;;;;;;;16.92;11.38;;;14.10;64.50;;;;;;5078994;28;20032;-71
2021/03/30 07:02:56;;;;;;;17.98;11.68;;;14.20;64.40;;;;;;5079139;28;20031;-71
2021/03/30 07:05:24;;;;;;;16.55;11.27;;;14.20;63.60;;;;;;5061049;28;20024;-72
2021/03/30 07:07:54;;;;;;;18.02;10.32;;;14.20;63.20;;;;;;5078773;28;20133;-72
2021/03/30 07:10:20;;;;;;;15.63;10.23;;;14.10;64.00;;;;;;5078686;28;20023;-71
2021/03/30 07:12:50;;;;;;;17.17;11.52;;;14.30;62.20;;;;;;5078853;28;20020;-72
2021/03/30 07:15:20;;;;;;;13.73;11.57;;;14.40;66.80;;;;;;5078511;28;20024;-72
2021/03/30 07:18:01;;;;;;;12.27;10.30;;;14.60;64.90;;;;;;5078886;28;20025;-72
2021/03/30 07:20:32;;;;;;;13.43;10.50;;;14.80;66.80;;;;;;5078329;28;20090;-72
2021/03/30 07:23:02;;;;;;;15.65;10.02;;;14.90;65.60;;;;;;5078758;28;20061;-72
2021/03/30 07:25:29;;;;;;;15.77;10.23;;;15.20;65.00;;;;;;5078349;28;20378;-72
2021/03/30 07:28:00;;;;;;;15.57;10.35;;;15.40;65.00;;;;;;5078357;28;20080;-72
2021/03/30 07:30:27;;;;;;;14.77;10.25;;;15.60;64.50;;;;;;5078322;28;20017;-72
2021/03/30 07:33:16;;;;;;;12.18;9.32;;;15.90;62.50;;;;;;5078361;28;20039;-72
2021/03/30 07:35:42;;;;;;;14.20;9.75;;;16.20;62.60;;;;;;5078462;28;20099;-72
2021/03/30 07:38:13;;;;;;;14.30;9.38;;;16.50;61.50;;;;;;5078112;28;20081;-72
2021/03/30 07:40:40;;;;;;;13.55;8.85;;;16.70;60.80;;;;;;5078204;28;20024;-72
2021/03/30 07:43:08;;;;;;;12.07;9.32;;;16.90;61.30;;;;;;5060156;28;20032;-72
2021/03/30 07:45:37;;;;;;;16.40;8.65;;;16.90;59.90;;;;;;5077939;28;20028;-72
2021/03/30 07:48:04;;;;;;;14.43;8.55;;;16.70;61.20;;;;;;5077815;28;20033;-72
2021/03/30 07:50:46;;;;;;;14.07;8.60;;;16.60;60.80;;;;;;5077870;28;20047;-72
2021/03/30 07:53:50;;;;;;;15.70;8.82;;;16.60;61.10;;;;;;5077859;28;20035;-72
2021/03/30 07:56:24;;;;;;;13.48;9.85;;;16.80;60.10;;;;;;5077987;28;20282;-71
2021/03/30 07:58:51;;;;;;;12.38;8.82;;;16.90;57.90;;;;;;5077807;28;20321;-71
2021/03/30 08:01:23;;;;;;;16.40;8.75;;;16.80;58.40;;;;;;5077653;28;20020;-71
2021/03/30 08:03:51;;;;;;;12.25;9.13;;;17.00;58.40;;;;;;5077546;28;20028;-71
2021/03/30 08:06:23;;;;;;;10.60;8.90;;;17.70;59.00;;;;;;5077529;28;20095;-71
2021/03/30 08:08:49;;;;;;;14.15;7.97;;;18.70;56.20;;;;;;5077329;28;20036;-71
2021/03/30 08:11:16;;;;;;;17.10;8.57;;;19.70;51.70;;;;;;5077455;28;20416;-72
2021/03/30 08:13:53;;;;;;;14.18;8.55;;;20.70;51.00;;;;;;5077364;28;20107;-71
2021/03/30 08:16:20;;;;;;;14.02;8.70;;;21.50;50.00;;;;;;5077415;28;20017;-72
2021/03/30 08:18:48;;;;;;;12.05;8.52;;;22.00;49.20;;;;;;5077672;28;20028;-72
2021/03/30 08:21:16;;;;;;;13.20;8.45;;;22.70;49.00;;;;;;5077289;28;20031;-72
2021/03/30 08:23:56;;;;;;;10.40;8.60;;;23.20;47.80;;;;;;5077552;28;20028;-72
2021/03/30 08:26:30;;;;;;;13.57;8.23;;;23.40;46.60;;;;;;5077223;28;20048;-72
2021/03/30 08:29:17;;;;;;;12.30;9.10;;;23.50;45.60;;;;;;5076952;28;20129;-72
2021/03/30 08:31:43;;;;;;;15.95;9.45;;;23.70;47.90;;;;;;5077229;28;20108;-71
2021/03/30 08:34:13;;;;;;;17.38;9.05;;;24.10;45.00;;;;;;5077062;28;20047;-71
2021/03/30 08:36:45;;;;;;;13.68;8.85;;;24.20;45.70;;;;;;5077375;28;20024;-72
2021/03/30 08:39:30;;;;;;;14.75;8.98;;;23.90;44.40;;;;;;5077189;28;20025;-71
2021/03/30 08:42:12;;;;;;;16.90;9.35;;;23.80;45.50;;;;;;5077277;28;20024;-71
2021/03/30 08:44:55;;;;;;;14.27;10.15;;;24.00;47.00;;;;;;5076926;28;20024;-71
2021/03/30 08:47:26;;;;;;;14.00;9.93;;;24.20;47.40;;;;;;5076890;28;20081;-71
2021/03/30 08:50:12;;;;;;;15.40;10.07;;;24.40;46.00;;;;;;5077009;28;20024;-72
2021/03/30 08:52:38;;;;;;;16.00;9.35;;;24.60;44.70;;;;;;5076898;28;20024;-71
2021/03/30 08:55:05;;;;;;;13.65;8.15;;;24.60;43.70;;;;;;5076680;28;20041;-72
2021/03/30 08:57:36;;;;;;;14.02;8.30;;;24.60;42.50;;;;;;5077047;28;20028;-72
2021/03/30 09:00:05;;;;;;;14.35;10.10;;;24.90;42.30;;;;;;5076902;28;20029;-72
2021/03/30 09:02:31;;;;;;;15.70;10.13;;;25.00;43.00;;;;;;5076655;28;20051;-71
2021/03/30 09:04:57;;;;;;;19.08;11.32;;;25.10;43.30;;;;;;5076615;28;20412;-72
2021/03/30 09:07:23;;;;;;;15.98;12.80;;;25.00;45.30;;;;;;5076645;28;20024;-71
2021/03/30 09:09:49;;;;;;;15.43;13.52;;;25.50;45.40;;;;;;5076795;28;20047;-71
2021/03/30 09:12:18;;;;;;;19.60;14.75;;;25.50;46.30;;;;;;5076661;28;20023;-72
2021/03/30 09:15:06;;;;;;;18.00;14.68;;;25.50;45.20;;;;;;5076666;28;20404;-71
2021/03/30 09:17:32;;;;;;;17.95;14.98;;;25.20;44.90;;;;;;5076635;28;20113;-71
2021/03/30 09:20:00;;;;;;;19.88;15.00;;;25.00;46.30;;;;;;5076589;28;20035;-71
2021/03/30 09:25:12;;;;;;;20.08;14.48;;;25.50;45.70;;;;;;5080946;28;20044;-72
2021/03/30 09:27:41;;;;;;;17.75;14.02;;;25.20;45.10;;;;;;5080484;28;20032;-71
2021/03/30 09:30:13;;;;;;;17.95;13.38;;;25.10;45.10;;;;;;5080820;28;20094;-72
2021/03/30 09:32:42;;;;;;;15.40;12.65;;;25.00;46.10;;;;;;5080560;28;20070;-72
2021/03/30 09:35:11;;;;;;;17.00;14.65;;;25.40;45.80;;;;;;5062585;28;20024;-71
2021/03/30 09:37:48;;;;;;;14.65;12.10;;;25.30;44.30;;;;;;5080689;28;20027;-72
2021/03/30 09:40:17;;;;;;;16.17;12.43;;;25.60;44.80;;;;;;5080396;28;20123;-71
2021/03/30 09:42:44;;;;;;;18.67;12.43;;;25.80;44.10;;;;;;5080304;28;20032;-72
2021/03/30 09:45:13;;;;;;;14.68;12.02;;;25.50;43.40;;;;;;5080240;28;20081;-72
2021/03/30 09:47:39;;;;;;;16.88;12.57;;;25.50;45.30;;;;;;5080384;28;20020;-71
2021/03/30 09:50:07;;;;;;;15.77;11.68;;;25.60;43.70;;;;;;5080429;28;20020;-71
2021/03/30 09:52:36;;;;;;;19.65;12.90;;;25.80;44.10;;;;;;5080387;28;20431;-72
2021/03/30 09:55:06;;;;;;;14.75;12.25;;;26.10;44.20;;;;;;5079962;28;20035;-71
2021/03/30 09:57:33;;;;;;;19.02;13.05;;;26.30;44.20;;;;;;5080203;28;20416;-71
2021/03/30 10:00:00;;;;;;;20.42;12.50;;;26.00;44.20;;;;;;5080070;28;20020;-72
2021/03/30 10:02:34;;;;;;;14.38;12.35;;;25.90;44.80;;;;;;5079964;28;20161;-71
2021/03/30 10:05:05;;;;;;;15.57;12.38;;;26.10;43.70;;;;;;5079689;28;20033;-73
2021/03/30 10:07:39;;;;;;;17.98;12.82;;;25.90;43.10;;;;;;5079695;28;20024;-71
2021/03/30 10:10:13;;;;;;;19.15;12.35;;;26.00;44.90;;;;;;5079881;28;20021;-71
2021/03/30 10:12:56;;;;;;;12.45;10.57;;;26.10;42.60;;;;;;5078291;28;20021;-71
2021/03/30 10:15:35;;;;;;;15.88;11.93;;;26.00;42.90;;;;;;5090949;28;20110;-71
2021/03/30 10:18:02;;;;;;;18.23;11.07;;;26.10;42.10;;;;;;5061971;28;20020;-71
2021/03/30 10:20:28;;;;;;;14.95;10.95;;;26.20;43.60;;;;;;5079559;28;20111;-71
2021/03/30 10:22:54;;;;;;;16.65;11.00;;;26.30;44.30;;;;;;5079801;28;20100;-72
2021/03/30 10:25:22;;;;;;;15.25;10.32;;;26.20;42.60;;;;;;5079508;28;20059;-72
2021/03/30 10:27:57;;;;;;;16.15;8.25;;;26.30;41.10;;;;;;5079232;28;20033;-71
2021/03/30 10:30:32;;;;;;;14.82;9.50;;;26.60;41.90;;;;;;5079669;28;20345;-73
2021/03/30 10:33:01;;;;;;;14.63;9.18;;;26.80;39.20;;;;;;5078924;28;20021;-71
2021/03/30 10:35:27;;;;;;;16.80;11.48;;;27.20;40.90;;;;;;5079321;28;20017;-72
2021/03/30 10:37:53;;;;;;;20.15;12.75;;;27.30;40.80;;;;;;5079301;28;20077;-73
2021/03/30 10:40:19;;;;;;;13.43;10.35;;;26.90;41.80;;;;;;5079248;28;20035;-73
2021/03/30 10:42:46;;;;;;;18.63;11.55;;;26.50;41.80;;;;;;5079458;28;20031;-73
2021/03/30 10:45:13;;;;;;;22.23;12.00;;;26.40;42.20;;;;;;5079129;28;20059;-73
2021/03/30 10:47:41;;;;;;;14.48;11.82;;;26.30;41.80;;;;;;5079054;28;20427;-72
2021/03/30 10:50:11;;;;;;;13.05;10.18;;;26.10;43.60;;;;;;5079359;28;20098;-72
2021/03/30 10:52:38;;;;;;;17.35;11.27;;;26.10;43.30;;;;;;5079254;28;20104;-73
2021/03/30 10:55:17;;;;;;;13.10;10.90;;;26.30;41.90;;;;;;5078946;28;20036;-73
2021/03/30 10:57:46;;;;;;;13.77;10.65;;;26.00;42.00;;;;;;5078974;28;20028;-71
2021/03/30 11:00:13;;;;;;;14.00;9.90;;;25.80;43.30;;;;;;5078928;28;20035;-71
2021/03/30 11:02:39;;;;;;;14.07;10.63;;;26.00;39.90;;;;;;5078659;28;20025;-72
2021/03/30 11:05:06;;;;;;;15.63;10.93;;;26.00;41.30;;;;;;5078792;28;20035;-72
2021/03/30 11:07:32;;;;;;;15.60;11.32;;;26.10;41.90;;;;;;5078906;28;20025;-73
2021/03/30 11:09:58;;;;;;;13.85;10.65;;;26.00;41.30;;;;;;5078791;28;20043;-73
2021/03/30 11:12:24;;;;;;;19.15;11.38;;;26.00;42.40;;;;;;5078679;28;20020;-73
2021/03/30 11:14:50;;;;;;;15.50;9.18;;;26.00;40.90;;;;;;5078792;28;20027;-73
2021/03/30 11:17:16;;;;;;;16.45;9.90;;;25.90;38.40;;;;;;5078852;28;20364;-73
2021/03/30 11:19:41;;;;;;;12.90;9.50;;;25.70;40.90;;;;;;5078653;28;20071;-73
2021/03/30 11:22:08;;;;;;;17.17;10.55;;;25.80;42.20;;;;;;5078477;28;20028;-71
2021/03/30 11:24:38;;;;;;;16.58;11.57;;;25.90;42.90;;;;;;5078517;28;20036;-71
2021/03/30 11:27:04;;;;;;;16.50;11.02;;;25.90;43.10;;;;;;5078642;28;20036;-71
2021/03/30 11:35:17;;;;;;;19.10;12.15;;;26.00;43.00;;;;;;5078180;28;20403;-72
2021/03/30 11:37:44;;;;;;;16.55;12.45;;;26.10;41.60;;;;;;5074935;28;20436;-72
2021/03/30 11:40:11;;;;;;;17.13;12.75;;;25.90;40.00;;;;;;5078199;28;20024;-71
2021/03/30 11:42:37;;;;;;;15.57;11.30;;;25.80;43.30;;;;;;5078321;28;20347;-72
2021/03/30 11:45:04;;;;;;;16.15;10.15;;;25.70;41.20;;;;;;5077083;28;20040;-73
2021/03/30 11:47:29;;;;;;;17.25;11.30;;;25.60;41.10;;;;;;5077956;28;20031;-73
2021/03/30 11:49:55;;;;;;;14.98;9.98;;;25.40;40.20;;;;;;5077984;28;20024;-72
2021/03/30 11:52:21;;;;;;;12.65;9.02;;;25.40;43.80;;;;;;5077932;28;20405;-73
2021/03/30 11:54:47;;;;;;;18.70;11.02;;;25.40;44.20;;;;;;5077729;28;20032;-72
2021/03/30 11:57:13;;;;;;;13.60;10.75;;;25.60;43.10;;;;;;5077788;28;20033;-72
2021/03/30 11:59:39;;;;;;;14.07;9.18;;;25.70;42.70;;;;;;5077838;28;20107;-72
2021/03/30 12:02:05;;;;;;;13.10;10.88;;;25.50;41.20;;;;;;5077628;28;20444;-72
2021/03/30 12:04:31;;;;;;;13.35;10.30;;;25.30;43.30;;;;;;5077556;28;20025;-73
2021/03/30 12:06:57;;;;;;;14.88;9.98;;;25.00;41.50;;;;;;5077505;28;20020;-73
2021/03/30 12:09:23;;;;;;;16.02;8.88;;;24.90;42.90;;;;;;5077685;28;20024;-73
2021/03/30 12:11:49;;;;;;;15.63;8.93;;;24.70;43.00;;;;;;5077723;28;20422;-73
2021/03/30 12:14:15;;;;;;;17.60;8.48;;;24.70;42.60;;;;;;5077369;28;20017;-73
2021/03/30 12:16:43;;;;;;;13.77;11.27;;;24.70;44.80;;;;;;5077421;28;20319;-73
2021/03/30 12:19:09;;;;;;;16.75;11.07;;;24.70;45.50;;;;;;5059640;28;20031;-73
2021/03/30 12:21:35;;;;;;;15.63;11.63;;;24.40;43.70;;;;;;5077576;28;20029;-73
2021/03/30 12:24:01;;;;;;;16.40;9.00;;;24.10;47.20;;;;;;5077707;28;20036;-73
2021/03/30 12:26:27;;;;;;;13.90;11.15;;;24.00;43.20;;;;;;5077252;28;20408;-73
2021/03/30 12:28:53;;;;;;;13.43;9.25;;;23.80;45.40;;;;;;5077015;28;20119;-73
2021/03/30 12:31:18;;;;;;;13.75;9.13;;;23.60;43.40;;;;;;5077144;28;20343;-72
2021/03/30 12:33:44;;;;;;;16.27;10.50;;;23.40;44.60;;;;;;5077289;28;20017;-73
2021/03/30 12:36:10;;;;;;;18.48;11.65;;;23.20;47.10;;;;;;5059408;28;20375;-73
2021/03/30 12:38:36;;;;;;;13.80;9.85;;;23.10;45.30;;;;;;5077062;28;20424;-72
2021/03/30 12:41:01;;;;;;;13.00;9.80;;;22.70;45.10;;;;;;5077017;28;20435;-73
2021/03/30 12:43:28;;;;;;;11.15;9.18;;;22.40;45.50;;;;;;5076936;28;20028;-72
2021/03/30 12:45:53;;;;;;;17.27;9.30;;;22.30;48.60;;;;;;5076940;28;20111;-72
2021/03/30 12:48:19;;;;;;;13.85;10.52;;;22.30;48.40;;;;;;5077389;28;20187;-72
2021/03/30 12:50:45;;;;;;;12.43;9.00;;;22.20;47.70;;;;;;5076893;28;20028;-72
2021/03/30 12:53:10;;;;;;;16.40;10.00;;;22.30;50.80;;;;;;5077035;28;20359;-72
2021/03/30 12:55:36;;;;;;;15.68;9.20;;;22.40;47.60;;;;;;5076561;28;20417;-72